createdAt,value
2023-10-24T00:00:11.830Z,17.23
2023-10-24T00:01:13.528Z,17.19
2023-10-24T00:02:15.381Z,17.16
2023-10-24T00:03:17.107Z,17.21
2023-10-24T00:04:18.931Z,17.20
2023-10-24T00:05:20.737Z,17.25
2023-10-24T00:06:22.397Z,17.26
2023-10-24T00:07:24.139Z,17.28
2023-10-24T00:08:25.742Z,17.30
2023-10-24T00:09:27.426Z,17.29
2023-10-24T00:10:29.237Z,17.32
2023-10-24T00:11:30.985Z,17.31
2023-10-24T00:12:32.666Z,17.31
2023-10-24T00:13:34.406Z,17.30
2023-10-24T00:14:36.175Z,17.28
2023-10-24T00:15:37.819Z,17.24
2023-10-24T00:16:39.466Z,17.25
2023-10-24T00:17:41.230Z,17.16
2023-10-24T00:18:43.671Z,17.23
2023-10-24T00:19:45.391Z,17.25
2023-10-24T00:20:47.118Z,17.24
2023-10-24T00:21:48.758Z,17.25
2023-10-24T00:22:50.353Z,17.23
2023-10-24T00:23:53.340Z,17.21
2023-10-24T00:24:55.062Z,17.20
2023-10-24T00:25:56.738Z,17.19
2023-10-24T00:26:59.057Z,17.19
2023-10-24T00:28:00.822Z,17.20
2023-10-24T00:29:02.422Z,17.17
2023-10-24T00:30:04.601Z,17.18
2023-10-24T00:31:08.578Z,17.15
2023-10-24T00:32:12.714Z,17.13
2023-10-24T00:33:14.562Z,17.04
2023-10-24T00:34:17.837Z,16.96
2023-10-24T00:35:19.524Z,16.94
2023-10-24T00:36:21.661Z,16.88
2023-10-24T00:37:23.352Z,16.91
2023-10-24T00:38:24.922Z,16.91
2023-10-24T00:39:26.532Z,16.89
2023-10-24T00:40:28.287Z,16.94
2023-10-24T00:41:30.108Z,16.96
2023-10-24T00:42:31.713Z,16.93
2023-10-24T00:43:33.450Z,16.78
2023-10-24T00:44:35.228Z,16.76
2023-10-24T00:45:37.236Z,16.70
2023-10-24T00:46:41.091Z,16.72
2023-10-24T00:47:42.884Z,16.67
2023-10-24T00:48:44.673Z,16.63
2023-10-24T00:49:46.801Z,16.64
2023-10-24T00:50:48.708Z,16.65
2023-10-24T00:51:50.458Z,16.70
2023-10-24T00:52:52.170Z,16.73
2023-10-24T00:53:55.262Z,16.70
2023-10-24T00:54:57.415Z,16.65
2023-10-24T00:55:59.810Z,16.67
2023-10-24T00:57:04.509Z,16.59
2023-10-24T00:58:07.620Z,16.56
2023-10-24T00:59:09.637Z,16.50
2023-10-24T01:00:12.607Z,16.48
2023-10-24T01:01:15.962Z,16.49
2023-10-24T01:02:18.579Z,16.48
2023-10-24T01:03:20.663Z,16.43
2023-10-24T01:04:23.329Z,16.49
2023-10-24T01:05:25.720Z,16.44
2023-10-24T01:06:27.489Z,16.42
2023-10-24T01:07:29.421Z,16.45
2023-10-24T01:08:31.005Z,16.43
2023-10-24T01:09:32.980Z,16.41
2023-10-24T01:10:34.869Z,16.41
2023-10-24T01:11:36.534Z,16.42
2023-10-24T01:12:38.873Z,16.40
2023-10-24T01:13:40.962Z,16.46
2023-10-24T01:14:42.838Z,16.38
2023-10-24T01:15:44.577Z,16.41
2023-10-24T01:16:46.799Z,16.40
2023-10-24T01:17:52.428Z,16.37
2023-10-24T01:18:54.066Z,16.41
2023-10-24T01:19:55.653Z,16.42
2023-10-24T01:20:57.211Z,16.40
2023-10-24T01:21:58.929Z,16.43
2023-10-24T01:23:01.920Z,16.39
2023-10-24T01:24:03.667Z,16.31
2023-10-24T01:25:14.254Z,16.32
2023-10-24T01:26:18.433Z,16.33
2023-10-24T01:27:22.363Z,16.39
2023-10-24T01:28:26.925Z,16.43
2023-10-24T01:29:28.652Z,16.48
2023-10-24T01:30:30.256Z,16.49
2023-10-24T01:31:32.411Z,16.28
2023-10-24T01:32:34.213Z,16.57
2023-10-24T01:33:35.867Z,16.56
2023-10-24T01:34:37.486Z,16.56
2023-10-24T01:35:39.192Z,16.64
2023-10-24T01:36:40.760Z,16.62
2023-10-24T01:37:42.455Z,16.62
2023-10-24T01:38:44.108Z,16.67
2023-10-24T01:39:45.695Z,16.67
2023-10-24T01:40:47.351Z,16.67
2023-10-24T01:41:48.930Z,16.65
2023-10-24T01:42:50.566Z,16.67
2023-10-24T01:43:53.200Z,16.62
2023-10-24T01:44:55.018Z,16.64
2023-10-24T01:45:56.630Z,16.60
2023-10-24T01:46:58.291Z,16.53
2023-10-24T01:47:59.941Z,16.47
2023-10-24T01:49:01.587Z,16.41
2023-10-24T01:50:04.487Z,16.42
2023-10-24T01:51:06.159Z,16.38
2023-10-24T01:52:07.748Z,16.43
2023-10-24T01:53:09.366Z,16.42
2023-10-24T01:54:10.953Z,16.48
2023-10-24T01:55:12.714Z,16.56
2023-10-24T01:56:14.685Z,16.59
2023-10-24T01:57:17.043Z,16.62
2023-10-24T01:58:18.672Z,16.66
2023-10-24T01:59:20.308Z,16.67
2023-10-24T02:00:22.083Z,16.65
2023-10-24T02:01:23.744Z,16.72
2023-10-24T02:02:27.794Z,16.73
2023-10-24T02:03:29.704Z,16.71
2023-10-24T02:04:31.417Z,16.76
2023-10-24T02:05:33.071Z,16.70
2023-10-24T02:06:34.722Z,16.62
2023-10-24T02:07:36.365Z,16.67
2023-10-24T02:08:38.229Z,16.66
2023-10-24T02:09:39.771Z,16.69
2023-10-24T02:10:41.328Z,16.67
2023-10-24T02:11:42.950Z,16.70
2023-10-24T02:12:44.614Z,16.67
2023-10-24T02:13:46.318Z,16.69
2023-10-24T02:14:47.900Z,16.68
2023-10-24T02:15:49.547Z,16.69
2023-10-24T02:16:51.268Z,16.66
2023-10-24T02:17:52.976Z,16.70
2023-10-24T02:18:54.551Z,16.67
2023-10-24T02:19:56.168Z,16.70
2023-10-24T02:20:57.733Z,16.66
2023-10-24T02:21:59.334Z,16.61
2023-10-24T02:23:01.120Z,16.55
2023-10-24T02:24:02.736Z,16.50
2023-10-24T02:25:04.686Z,16.44
2023-10-24T02:26:06.365Z,16.45
2023-10-24T02:27:08.209Z,16.43
2023-10-24T02:28:09.834Z,16.34
2023-10-24T02:29:11.454Z,16.30
2023-10-24T02:30:13.134Z,16.32
2023-10-24T02:31:15.744Z,16.35
2023-10-24T02:32:18.090Z,16.36
2023-10-24T02:33:19.848Z,16.33
2023-10-24T02:34:22.491Z,16.23
2023-10-24T02:35:24.091Z,16.18
2023-10-24T02:36:25.688Z,16.20
2023-10-24T02:37:27.670Z,16.22
2023-10-24T02:38:29.261Z,16.24
2023-10-24T02:39:30.915Z,16.20
2023-10-24T02:40:32.492Z,16.20
2023-10-24T02:41:34.168Z,16.23
2023-10-24T02:42:36.077Z,16.21
2023-10-24T02:43:37.761Z,16.21
2023-10-24T02:44:39.664Z,16.20
2023-10-24T02:45:41.478Z,16.25
2023-10-24T02:46:43.228Z,16.23
2023-10-24T02:47:45.019Z,16.21
2023-10-24T02:48:47.322Z,16.24
2023-10-24T02:49:49.040Z,16.23
2023-10-24T02:50:56.913Z,16.27
2023-10-24T02:51:58.486Z,16.25
2023-10-24T02:53:02.499Z,16.28
2023-10-24T02:54:04.362Z,16.24
2023-10-24T02:55:07.423Z,16.28
2023-10-24T02:56:09.102Z,16.20
2023-10-24T02:57:10.867Z,16.19
2023-10-24T02:58:12.713Z,16.16
2023-10-24T02:59:14.375Z,16.17
2023-10-24T03:00:16.588Z,16.20
2023-10-24T03:01:19.109Z,16.19
2023-10-24T03:02:21.466Z,16.09
2023-10-24T03:03:23.196Z,16.04
2023-10-24T03:04:24.956Z,16.01
2023-10-24T03:05:27.985Z,15.95
2023-10-24T03:06:29.581Z,15.99
2023-10-24T03:07:31.748Z,16.01
2023-10-24T03:08:33.448Z,16.02
2023-10-24T03:09:36.371Z,15.97
2023-10-24T03:10:41.915Z,15.96
2023-10-24T03:11:43.594Z,16.03
2023-10-24T03:12:45.153Z,16.04
2023-10-24T03:13:46.982Z,15.99
2023-10-24T03:14:48.645Z,16.01
2023-10-24T03:15:50.213Z,16.00
2023-10-24T03:16:51.923Z,16.02
2023-10-24T03:17:53.616Z,16.07
2023-10-24T03:18:55.293Z,16.06
2023-10-24T03:19:56.989Z,16.11
2023-10-24T03:20:59.230Z,16.11
2023-10-24T03:22:01.353Z,16.04
2023-10-24T03:23:03.260Z,16.10
2023-10-24T03:24:05.107Z,16.09
2023-10-24T03:25:07.525Z,16.11
2023-10-24T03:26:09.180Z,16.08
2023-10-24T03:27:14.042Z,16.11
2023-10-24T03:28:15.961Z,16.12
2023-10-24T03:29:17.594Z,16.11
2023-10-24T03:30:19.320Z,16.08
2023-10-24T03:31:21.069Z,16.09
2023-10-24T03:32:22.736Z,15.99
2023-10-24T03:33:24.327Z,15.90
2023-10-24T03:34:27.022Z,15.93
2023-10-24T03:35:28.653Z,15.93
2023-10-24T03:36:30.355Z,15.96
2023-10-24T03:37:32.251Z,15.96
2023-10-24T03:38:33.920Z,15.96
2023-10-24T03:39:35.696Z,15.94
2023-10-24T03:40:39.391Z,15.98
2023-10-24T03:41:41.084Z,15.98
2023-10-24T03:42:42.808Z,15.96
2023-10-24T03:43:49.646Z,15.96
2023-10-24T03:44:52.654Z,15.94
2023-10-24T03:45:54.279Z,15.93
2023-10-24T03:46:56.015Z,15.90
2023-10-24T03:47:57.994Z,15.93
2023-10-24T03:48:59.672Z,15.97
2023-10-24T03:50:01.277Z,15.93
2023-10-24T03:51:03.150Z,15.91
2023-10-24T03:52:06.575Z,15.89
2023-10-24T03:53:08.633Z,15.88
2023-10-24T03:54:10.462Z,15.83
2023-10-24T03:55:12.824Z,15.74
2023-10-24T03:56:14.400Z,15.74
2023-10-24T03:57:15.952Z,15.72
2023-10-24T03:58:17.607Z,15.79
2023-10-24T03:59:19.200Z,15.80
2023-10-24T04:00:21.026Z,15.77
2023-10-24T04:01:22.630Z,15.79
2023-10-24T04:02:24.297Z,15.79
2023-10-24T04:03:26.130Z,15.80
2023-10-24T04:04:27.844Z,15.76
2023-10-24T04:05:33.615Z,15.71
2023-10-24T04:06:35.604Z,15.70
2023-10-24T04:07:37.246Z,15.63
2023-10-24T04:08:39.796Z,15.62
2023-10-24T04:09:41.460Z,15.65
2023-10-24T04:10:43.165Z,15.62
2023-10-24T04:11:44.796Z,15.67
2023-10-24T04:12:46.410Z,15.66
2023-10-24T04:13:48.177Z,15.66
2023-10-24T04:14:49.829Z,15.67
2023-10-24T04:15:58.097Z,15.62
2023-10-24T04:16:59.789Z,15.67
2023-10-24T04:18:01.516Z,15.71
2023-10-24T04:19:03.508Z,15.70
2023-10-24T04:20:07.674Z,15.70
2023-10-24T04:21:09.332Z,15.70
2023-10-24T04:22:10.914Z,15.70
2023-10-24T04:23:18.017Z,15.72
2023-10-24T04:24:19.572Z,15.70
2023-10-24T04:25:21.277Z,15.70
2023-10-24T04:26:22.932Z,15.70
2023-10-24T04:27:25.984Z,15.72
2023-10-24T04:28:27.615Z,15.72
2023-10-24T04:29:30.985Z,15.72
2023-10-24T04:30:32.613Z,15.75
2023-10-24T04:31:34.740Z,15.72
2023-10-24T04:32:36.516Z,15.73
2023-10-24T04:33:38.685Z,15.73
2023-10-24T04:34:40.616Z,15.71
2023-10-24T04:35:48.384Z,15.62
2023-10-24T04:36:50.114Z,15.59
2023-10-24T04:37:51.973Z,15.57
2023-10-24T04:38:53.580Z,15.56
2023-10-24T04:39:56.143Z,15.40
2023-10-24T04:40:57.788Z,15.55
2023-10-24T04:41:59.622Z,15.51
2023-10-24T04:43:01.276Z,15.48
2023-10-24T04:44:02.842Z,15.45
2023-10-24T04:45:04.726Z,15.44
2023-10-24T04:46:06.373Z,15.47
2023-10-24T04:47:08.000Z,15.54
2023-10-24T04:48:09.896Z,15.54
2023-10-24T04:49:11.472Z,15.55
2023-10-24T04:50:14.539Z,15.55
2023-10-24T04:51:16.212Z,15.57
2023-10-24T04:52:17.870Z,15.57
2023-10-24T04:53:20.348Z,15.64
2023-10-24T04:54:22.070Z,15.61
2023-10-24T04:55:27.684Z,15.65
2023-10-24T04:56:29.987Z,15.66
2023-10-24T04:57:31.647Z,15.63
2023-10-24T04:58:33.247Z,15.63
2023-10-24T04:59:35.126Z,15.62
2023-10-24T05:00:36.738Z,15.63
2023-10-24T05:01:41.486Z,15.63
2023-10-24T05:02:45.300Z,15.62
2023-10-24T05:03:46.922Z,15.61
2023-10-24T05:04:48.713Z,15.69
2023-10-24T05:05:50.480Z,15.73
2023-10-24T05:06:52.412Z,15.76
2023-10-24T05:07:54.138Z,15.76
2023-10-24T05:08:56.582Z,15.79
2023-10-24T05:09:58.193Z,15.79
2023-10-24T05:10:59.836Z,15.81
2023-10-24T05:12:01.444Z,15.87
2023-10-24T05:13:03.176Z,15.87
2023-10-24T05:14:04.815Z,15.93
2023-10-24T05:15:06.913Z,15.93
2023-10-24T05:16:08.516Z,15.96
2023-10-24T05:17:10.177Z,15.99
2023-10-24T05:18:12.861Z,15.99
2023-10-24T05:19:14.551Z,16.06
2023-10-24T05:20:18.378Z,16.09
2023-10-24T05:21:20.019Z,16.12
2023-10-24T05:22:21.644Z,16.13
2023-10-24T05:23:23.260Z,16.17
2023-10-24T05:24:24.860Z,16.21
2023-10-24T05:25:26.464Z,16.20
2023-10-24T05:26:28.160Z,16.22
2023-10-24T05:27:30.252Z,16.28
2023-10-24T05:28:33.496Z,16.28
2023-10-24T05:29:36.053Z,16.30
2023-10-24T05:30:40.385Z,16.31
2023-10-24T05:31:42.090Z,16.33
2023-10-24T05:32:45.013Z,16.27
2023-10-24T05:33:46.823Z,16.36
2023-10-24T05:34:48.496Z,16.39
2023-10-24T05:35:50.310Z,16.32
2023-10-24T05:36:52.036Z,16.40
2023-10-24T05:37:53.752Z,16.43
2023-10-24T05:38:56.823Z,16.44
2023-10-24T05:39:58.519Z,16.51
2023-10-24T05:41:01.257Z,16.54
2023-10-24T05:42:03.008Z,16.54
2023-10-24T05:43:05.970Z,16.59
2023-10-24T05:44:07.561Z,16.63
2023-10-24T05:45:09.808Z,16.65
2023-10-24T05:46:11.508Z,16.68
2023-10-24T05:47:13.190Z,16.73
2023-10-24T05:48:14.756Z,16.77
2023-10-24T05:49:16.452Z,16.83
2023-10-24T05:50:20.158Z,16.86
2023-10-24T05:51:30.201Z,16.89
2023-10-24T05:52:32.804Z,16.95
2023-10-24T05:53:34.446Z,17.02
2023-10-24T05:54:37.320Z,17.09
2023-10-24T05:55:40.823Z,17.16
2023-10-24T05:56:42.498Z,17.21
2023-10-24T05:57:44.194Z,17.26
2023-10-24T05:58:46.067Z,17.26
2023-10-24T05:59:47.664Z,17.33
2023-10-24T06:00:49.263Z,17.36
2023-10-24T06:01:50.966Z,17.43
2023-10-24T06:02:52.697Z,17.49
2023-10-24T06:03:54.373Z,17.54
2023-10-24T06:04:56.056Z,17.57
2023-10-24T06:05:57.684Z,17.64
2023-10-24T06:06:59.279Z,17.70
2023-10-24T06:08:01.011Z,17.76
2023-10-24T06:09:03.872Z,17.85
2023-10-24T06:10:06.921Z,17.88
2023-10-24T06:11:08.720Z,17.94
2023-10-24T06:12:10.425Z,17.95
2023-10-24T06:13:12.284Z,18.06
2023-10-24T06:14:13.884Z,18.13
2023-10-24T06:15:15.499Z,18.17
2023-10-24T06:16:18.556Z,18.22
2023-10-24T06:17:20.689Z,18.24
2023-10-24T06:18:24.375Z,18.29
2023-10-24T06:19:28.247Z,18.34
2023-10-24T06:20:29.921Z,18.41
2023-10-24T06:21:31.541Z,18.48
2023-10-24T06:22:33.166Z,18.54
2023-10-24T06:23:36.356Z,18.57
2023-10-24T06:24:38.433Z,18.64
2023-10-24T06:25:43.599Z,18.69
2023-10-24T06:26:45.257Z,18.75
2023-10-24T06:27:46.891Z,18.79
2023-10-24T06:28:48.612Z,18.83
2023-10-24T06:29:50.258Z,18.89
2023-10-24T06:30:59.102Z,18.95
2023-10-24T06:32:00.916Z,18.98
2023-10-24T06:33:03.707Z,19.02
2023-10-24T06:34:05.446Z,19.08
2023-10-24T06:35:07.382Z,19.14
2023-10-24T06:36:09.518Z,19.20
2023-10-24T06:37:11.205Z,19.28
2023-10-24T06:38:12.890Z,19.36
2023-10-24T06:39:14.477Z,19.41
2023-10-24T06:40:16.231Z,19.45
2023-10-24T06:41:17.848Z,19.49
2023-10-24T06:42:19.413Z,19.56
2023-10-24T06:43:22.067Z,19.64
2023-10-24T06:44:24.081Z,19.67
2023-10-24T06:45:27.427Z,19.73
2023-10-24T06:46:30.512Z,19.86
2023-10-24T06:47:32.131Z,19.90
2023-10-24T06:48:33.803Z,20.01
2023-10-24T06:49:35.503Z,20.09
2023-10-24T06:50:37.278Z,20.22
2023-10-24T06:51:38.882Z,20.33
2023-10-24T06:52:43.426Z,20.55
2023-10-24T06:53:45.262Z,20.77
2023-10-24T06:54:46.913Z,20.94
2023-10-24T06:55:48.509Z,21.25
2023-10-24T06:56:50.200Z,21.53
2023-10-24T06:57:52.161Z,21.84
2023-10-24T06:58:53.831Z,22.13
2023-10-24T06:59:56.656Z,22.44
2023-10-24T07:00:58.382Z,22.81
2023-10-24T07:02:00.657Z,22.96
2023-10-24T07:03:02.501Z,23.28
2023-10-24T07:04:04.476Z,23.51
2023-10-24T07:05:06.413Z,23.66
2023-10-24T07:06:08.146Z,23.73
2023-10-24T07:07:09.901Z,23.88
2023-10-24T07:08:11.468Z,24.05
2023-10-24T07:09:14.099Z,24.31
2023-10-24T07:10:16.295Z,24.43
2023-10-24T07:11:17.926Z,24.68
2023-10-24T07:12:21.705Z,24.80
2023-10-24T07:13:23.404Z,25.06
2023-10-24T07:14:25.192Z,25.32
2023-10-24T07:15:26.822Z,25.69
2023-10-24T07:16:28.693Z,26.00
2023-10-24T07:17:31.497Z,26.34
2023-10-24T07:18:33.128Z,26.69
2023-10-24T07:19:34.793Z,27.01
2023-10-24T07:20:40.210Z,27.31
2023-10-24T07:21:41.839Z,27.57
2023-10-24T07:22:43.477Z,27.83
2023-10-24T07:23:45.168Z,28.11
2023-10-24T07:24:46.783Z,28.27
2023-10-24T07:25:57.136Z,28.42
2023-10-24T07:26:58.734Z,28.53
2023-10-24T07:28:00.344Z,28.66
2023-10-24T07:29:02.056Z,28.81
2023-10-24T07:30:04.036Z,29.04
2023-10-24T07:31:05.673Z,29.18
2023-10-24T07:32:07.433Z,29.33
2023-10-24T07:33:09.074Z,29.58
2023-10-24T07:34:10.685Z,29.69
2023-10-24T07:35:12.302Z,29.79
2023-10-24T07:36:13.905Z,29.94
2023-10-24T07:37:15.607Z,30.07
2023-10-24T07:38:17.214Z,30.16
2023-10-24T07:39:18.842Z,30.18
2023-10-24T07:40:20.641Z,30.26
2023-10-24T07:41:22.428Z,30.29
2023-10-24T07:42:24.057Z,30.07
2023-10-24T07:43:25.743Z,29.98
2023-10-24T07:44:27.421Z,29.99
2023-10-24T07:45:29.062Z,30.08
2023-10-24T07:46:30.798Z,30.22
2023-10-24T07:47:32.901Z,30.47
2023-10-24T07:48:34.672Z,30.57
2023-10-24T07:49:36.660Z,30.73
2023-10-24T07:50:38.310Z,30.91
2023-10-24T07:51:39.878Z,31.13
2023-10-24T07:52:41.596Z,31.24
2023-10-24T07:53:43.198Z,31.31
2023-10-24T07:54:44.763Z,31.39
2023-10-24T07:55:46.508Z,31.63
2023-10-24T07:56:48.232Z,31.76
2023-10-24T07:57:52.964Z,31.95
2023-10-24T07:58:54.605Z,32.18
2023-10-24T07:59:56.243Z,32.18
2023-10-24T08:00:57.903Z,32.10
2023-10-24T08:02:00.064Z,31.87
2023-10-24T08:03:02.103Z,31.65
2023-10-24T08:04:03.981Z,31.49
2023-10-24T08:05:06.157Z,31.51
2023-10-24T08:06:07.812Z,31.38
2023-10-24T08:07:09.391Z,31.30
2023-10-24T08:08:10.975Z,31.19
2023-10-24T08:09:12.597Z,31.11
2023-10-24T08:10:14.209Z,31.28
2023-10-24T08:11:15.774Z,31.48
2023-10-24T08:12:17.379Z,31.80
2023-10-24T08:13:18.929Z,32.11
2023-10-24T08:14:20.602Z,32.37
2023-10-24T08:15:22.246Z,32.59
2023-10-24T08:16:23.978Z,32.81
2023-10-24T08:17:25.769Z,32.52
2023-10-24T08:18:27.446Z,32.03
2023-10-24T08:19:29.154Z,32.24
2023-10-24T08:20:30.773Z,32.44
2023-10-24T08:21:32.412Z,32.59
2023-10-24T08:22:34.075Z,32.65
2023-10-24T08:23:35.759Z,32.67
2023-10-24T08:24:37.333Z,32.75
2023-10-24T08:25:38.941Z,32.92
2023-10-24T08:26:41.799Z,33.23
2023-10-24T08:27:46.679Z,33.33
2023-10-24T08:28:48.423Z,33.45
2023-10-24T08:29:50.039Z,33.70
2023-10-24T08:30:51.641Z,33.96
2023-10-24T08:32:00.717Z,34.17
2023-10-24T08:33:03.084Z,34.17
2023-10-24T08:34:04.728Z,34.20
2023-10-24T08:35:06.658Z,34.13
2023-10-24T08:36:08.232Z,34.10
2023-10-24T08:37:10.219Z,34.14
2023-10-24T08:38:13.139Z,34.07
2023-10-24T08:39:15.221Z,33.92
2023-10-24T08:40:16.871Z,33.81
2023-10-24T08:41:21.034Z,33.73
2023-10-24T08:42:23.259Z,33.66
2023-10-24T08:43:26.180Z,33.70
2023-10-24T08:44:28.557Z,33.77
2023-10-24T08:45:31.902Z,34.00
2023-10-24T08:46:34.050Z,34.27
2023-10-24T08:47:36.887Z,34.42
2023-10-24T08:48:38.685Z,34.49
2023-10-24T08:49:40.813Z,34.53
2023-10-24T08:50:44.020Z,34.47
2023-10-24T08:51:46.471Z,34.50
2023-10-24T08:52:48.175Z,34.32
2023-10-24T08:53:50.177Z,34.40
2023-10-24T08:54:52.693Z,34.50
2023-10-24T08:55:55.807Z,34.40
2023-10-24T08:56:58.242Z,34.41
2023-10-24T08:58:01.708Z,34.49
2023-10-24T08:59:05.977Z,34.54
2023-10-24T09:00:12.904Z,34.67
2023-10-24T09:01:14.994Z,34.71
2023-10-24T09:02:18.178Z,34.63
2023-10-24T09:03:20.040Z,34.37
2023-10-24T09:04:22.749Z,34.32
2023-10-24T09:05:29.000Z,34.29
2023-10-24T09:06:34.397Z,34.36
2023-10-24T09:07:37.103Z,34.28
2023-10-24T09:08:38.788Z,34.46
2023-10-24T09:09:40.444Z,34.73
2023-10-24T09:10:42.178Z,34.94
2023-10-24T09:11:58.289Z,35.14
2023-10-24T09:12:59.939Z,35.41
2023-10-24T09:14:01.582Z,35.59
2023-10-24T09:15:03.553Z,35.61
2023-10-24T09:16:07.590Z,35.86
2023-10-24T09:17:09.294Z,35.96
2023-10-24T09:18:11.184Z,36.14
2023-10-24T09:19:16.472Z,36.20
2023-10-24T09:20:20.141Z,36.37
2023-10-24T09:21:21.805Z,36.37
2023-10-24T09:22:24.036Z,36.48
2023-10-24T09:23:25.714Z,36.63
2023-10-24T09:24:27.517Z,36.19
2023-10-24T09:25:30.057Z,36.07
2023-10-24T09:26:31.689Z,36.03
2023-10-24T09:27:33.296Z,35.96
2023-10-24T09:28:35.298Z,36.02
2023-10-24T09:29:37.530Z,36.08
2023-10-24T09:30:40.684Z,36.05
2023-10-24T09:31:42.857Z,36.03
2023-10-24T09:32:45.445Z,35.89
2023-10-24T09:33:47.984Z,35.96
2023-10-24T09:34:49.995Z,36.16
2023-10-24T09:36:05.761Z,36.24
2023-10-24T09:37:18.113Z,36.28
2023-10-24T09:38:26.131Z,36.44
2023-10-24T09:39:27.732Z,36.49
2023-10-24T09:40:40.711Z,36.24
2023-10-24T09:41:43.940Z,36.15
2023-10-24T09:42:48.156Z,36.22
2023-10-24T09:43:49.905Z,36.20
2023-10-24T09:44:55.338Z,36.30
2023-10-24T09:45:57.703Z,36.42
2023-10-24T09:46:59.566Z,36.36
2023-10-24T09:48:02.188Z,36.36
2023-10-24T09:49:05.727Z,36.32
2023-10-24T09:50:09.206Z,36.19
2023-10-24T09:51:12.846Z,36.14
2023-10-24T09:52:18.114Z,36.16
2023-10-24T09:53:20.505Z,36.20
2023-10-24T09:54:23.292Z,36.21
2023-10-24T09:55:25.283Z,36.27
2023-10-24T09:56:29.073Z,36.32
2023-10-24T09:57:31.502Z,36.40
2023-10-24T09:58:35.847Z,36.48
2023-10-24T09:59:38.982Z,36.45
2023-10-24T10:00:40.883Z,36.52
2023-10-24T10:01:54.213Z,36.62
2023-10-24T10:03:04.603Z,36.63
2023-10-24T10:04:06.793Z,36.59
2023-10-24T10:05:08.944Z,36.67
2023-10-24T10:06:15.425Z,36.52
2023-10-24T10:07:18.812Z,36.47
2023-10-24T10:08:22.949Z,36.42
2023-10-24T10:09:24.622Z,36.32
2023-10-24T10:10:26.481Z,36.36
2023-10-24T10:11:29.072Z,36.31
2023-10-24T10:12:32.532Z,36.24
2023-10-24T10:13:39.748Z,36.24
2023-10-24T10:15:01.375Z,36.24
2023-10-24T10:16:21.611Z,36.36
2023-10-24T10:17:39.679Z,36.43
2023-10-24T10:19:15.954Z,36.46
2023-10-24T10:20:56.281Z,36.17
2023-10-24T10:22:23.774Z,36.18
2023-10-24T10:23:28.079Z,36.10
2023-10-24T10:24:38.839Z,35.82
2023-10-24T10:25:43.336Z,35.65
2023-10-24T10:27:22.533Z,35.60
2023-10-24T10:28:43.132Z,35.56
2023-10-24T10:30:25.853Z,35.57
2023-10-24T10:32:42.302Z,35.32
2023-10-24T10:33:22.824Z,35.24
2023-10-24T10:34:36.109Z,35.22
2023-10-24T10:36:09.467Z,35.21
2023-10-24T10:37:11.263Z,35.16
2023-10-24T10:38:12.923Z,35.07
2023-10-24T10:39:14.631Z,34.98
2023-10-24T10:40:16.284Z,34.90
2023-10-24T10:41:24.151Z,34.84
2023-10-24T10:42:51.212Z,34.37
2023-10-24T10:43:59.500Z,34.19
2023-10-24T10:45:27.231Z,34.04
2023-10-24T10:46:30.650Z,33.92
2023-10-24T10:47:32.345Z,33.86
2023-10-24T10:48:34.092Z,33.64
2023-10-24T10:49:40.315Z,33.52
2023-10-24T10:50:42.940Z,33.43
2023-10-24T10:51:44.641Z,33.37
2023-10-24T10:53:12.048Z,33.36
2023-10-24T10:54:44.236Z,33.38
2023-10-24T10:55:51.671Z,33.26
2023-10-24T10:56:58.379Z,33.19
2023-10-24T10:58:13.122Z,33.05
2023-10-24T10:59:58.788Z,32.83
2023-10-24T11:01:21.006Z,32.50
2023-10-24T11:02:56.090Z,32.41
2023-10-24T11:03:59.695Z,32.41
2023-10-24T11:05:02.976Z,32.40
2023-10-24T11:06:13.388Z,32.38
2023-10-24T11:07:15.072Z,32.36
2023-10-24T11:08:20.937Z,32.24
2023-10-24T11:09:43.698Z,32.18
2023-10-24T11:10:55.633Z,32.05
2023-10-24T11:12:22.089Z,31.95
2023-10-24T11:13:40.691Z,31.96
2023-10-24T11:14:42.779Z,31.82
2023-10-24T11:15:54.411Z,31.81
2023-10-24T11:16:56.447Z,31.72
2023-10-24T11:17:58.552Z,31.49
2023-10-24T11:19:00.168Z,31.51
2023-10-24T11:20:14.448Z,31.52
2023-10-24T11:21:23.427Z,31.51
2023-10-24T11:22:25.259Z,31.34
2023-10-24T11:23:29.640Z,31.44
2023-10-24T11:24:31.392Z,31.42
2023-10-24T11:25:33.273Z,31.42
2023-10-24T11:26:35.348Z,31.36
2023-10-24T11:27:37.214Z,31.31
2023-10-24T11:28:39.615Z,31.35
2023-10-24T11:29:41.514Z,31.37
2023-10-24T11:30:43.344Z,31.25
2023-10-24T11:31:48.367Z,31.17
2023-10-24T11:32:53.348Z,31.03
2023-10-24T11:33:57.926Z,30.97
2023-10-24T11:34:59.676Z,31.06
2023-10-24T11:36:01.762Z,31.10
2023-10-24T11:37:03.963Z,31.09
2023-10-24T11:38:05.792Z,31.10
2023-10-24T11:39:08.644Z,31.15
2023-10-24T11:40:10.747Z,31.12
2023-10-24T11:41:12.423Z,31.01
2023-10-24T11:42:14.649Z,30.97
2023-10-24T11:43:18.912Z,30.93
2023-10-24T11:44:22.532Z,30.91
2023-10-24T11:45:24.199Z,30.85
2023-10-24T11:46:26.102Z,30.81
2023-10-24T11:47:27.806Z,30.82
2023-10-24T11:48:29.432Z,30.78
2023-10-24T11:49:34.743Z,30.69
2023-10-24T11:50:46.936Z,30.71
2023-10-24T11:51:50.217Z,30.70
2023-10-24T11:52:51.969Z,30.42
2023-10-24T11:54:04.404Z,30.27
2023-10-24T11:55:07.880Z,30.24
2023-10-24T11:56:09.938Z,30.25
2023-10-24T11:57:12.462Z,30.07
2023-10-24T11:58:14.152Z,29.90
2023-10-24T11:59:15.887Z,29.88
2023-10-24T12:00:18.371Z,29.89
2023-10-24T12:01:20.680Z,29.89
2023-10-24T12:02:23.215Z,29.88
2023-10-24T12:03:25.100Z,29.91
2023-10-24T12:04:26.932Z,29.68
2023-10-24T12:05:28.508Z,29.62
2023-10-24T12:06:30.725Z,29.69
2023-10-24T12:07:33.659Z,29.61
2023-10-24T12:08:37.194Z,29.66
2023-10-24T12:09:38.803Z,29.66
2023-10-24T12:10:40.450Z,29.57
2023-10-24T12:11:42.056Z,29.62
2023-10-24T12:12:45.598Z,29.66
2023-10-24T12:13:48.060Z,29.65
2023-10-24T12:14:50.102Z,29.58
2023-10-24T12:15:52.158Z,29.58
2023-10-24T12:16:59.428Z,29.61
2023-10-24T12:18:05.495Z,29.63
2023-10-24T12:19:07.230Z,29.61
2023-10-24T12:20:09.448Z,29.65
2023-10-24T12:21:12.793Z,29.66
2023-10-24T12:22:14.648Z,29.50
2023-10-24T12:23:18.087Z,29.50
2023-10-24T12:24:19.722Z,29.43
2023-10-24T12:25:21.357Z,29.41
2023-10-24T12:26:23.570Z,29.33
2023-10-24T12:27:25.151Z,29.30
2023-10-24T12:28:26.775Z,29.15
2023-10-24T12:29:28.396Z,29.09
2023-10-24T12:30:30.094Z,28.75
2023-10-24T12:31:31.804Z,28.73
2023-10-24T12:32:33.576Z,28.76
2023-10-24T12:33:35.292Z,28.63
2023-10-24T12:34:37.033Z,28.53
2023-10-24T12:35:38.671Z,28.38
2023-10-24T12:36:40.444Z,28.31
2023-10-24T12:37:42.085Z,28.35
2023-10-24T12:38:43.718Z,28.32
2023-10-24T12:39:47.586Z,28.36
2023-10-24T12:40:49.236Z,28.44
2023-10-24T12:41:50.879Z,28.47
2023-10-24T12:42:53.826Z,28.51
2023-10-24T12:43:55.586Z,28.51
2023-10-24T12:44:57.265Z,28.54
2023-10-24T12:45:59.297Z,28.48
2023-10-24T12:47:01.820Z,28.49
2023-10-24T12:48:09.006Z,28.34
2023-10-24T12:49:10.922Z,28.33
2023-10-24T12:50:12.577Z,28.30
2023-10-24T12:51:14.814Z,28.37
2023-10-24T12:52:16.479Z,28.37
2023-10-24T12:53:19.005Z,28.34
2023-10-24T12:54:20.608Z,28.32
2023-10-24T12:55:23.226Z,28.33
2023-10-24T12:56:24.810Z,28.28
2023-10-24T12:57:26.642Z,28.14
2023-10-24T12:58:28.271Z,28.00
2023-10-24T12:59:30.448Z,27.94
2023-10-24T13:00:33.049Z,27.95
2023-10-24T13:01:34.798Z,27.87
2023-10-24T13:02:36.544Z,27.78
2023-10-24T13:03:38.757Z,27.81
2023-10-24T13:04:42.018Z,27.81
2023-10-24T13:05:47.883Z,27.76
2023-10-24T13:06:54.982Z,27.62
2023-10-24T13:07:58.833Z,27.68
2023-10-24T13:09:02.371Z,27.60
2023-10-24T13:10:04.391Z,27.55
2023-10-24T13:11:06.191Z,27.40
2023-10-24T13:12:09.272Z,27.34
2023-10-24T13:13:10.846Z,27.24
2023-10-24T13:14:13.376Z,27.19
2023-10-24T13:15:15.011Z,27.09
2023-10-24T13:16:17.581Z,27.03
2023-10-24T13:17:19.426Z,27.03
2023-10-24T13:18:21.125Z,27.00
2023-10-24T13:19:22.939Z,26.93
2023-10-24T13:20:24.698Z,26.93
2023-10-24T13:21:26.401Z,26.88
2023-10-24T13:22:28.036Z,26.98
2023-10-24T13:23:29.596Z,27.00
2023-10-24T13:24:32.657Z,27.01
2023-10-24T13:25:36.298Z,27.13
2023-10-24T13:26:37.985Z,27.12
2023-10-24T13:27:39.626Z,26.98
2023-10-24T13:28:41.656Z,26.98
2023-10-24T13:29:43.478Z,27.02
2023-10-24T13:30:58.387Z,27.09
2023-10-24T13:32:07.807Z,27.09
2023-10-24T13:33:09.469Z,27.06
2023-10-24T13:34:49.406Z,26.97
2023-10-24T13:36:38.107Z,26.55